sensor_id;sensor_type;location;lat;lon;timestamp;P1;durP1;ratioP1;P2;durP2;ratioP2
22812;SDS011;11573;51.334;3.244;2022-07-17T00:00:27;4.43;;;2.22;;
22812;SDS011;11573;51.334;3.244;2022-07-17T00:02:54;7.13;;;2.53;;
22812;SDS011;11573;51.334;3.244;2022-07-17T00:05:22;5.68;;;2.63;;
22812;SDS011;11573;51.334;3.244;2022-07-17T00:07:49;4.07;;;2.42;;
22812;SDS011;11573;51.334;3.244;2022-07-17T00:10:16;6.25;;;2.45;;
22812;SDS011;11573;51.334;3.244;2022-07-17T00:12:43;5.93;;;2.33;;
22812;SDS011;11573;51.334;3.244;2022-07-17T00:15:11;7.22;;;2.35;;
22812;SDS011;11573;51.334;3.244;2022-07-17T00:17:38;4.28;;;2.33;;
22812;SDS011;11573;51.334;3.244;2022-07-17T00:20:06;3.92;;;2.20;;
22812;SDS011;11573;51.334;3.244;2022-07-17T00:22:34;6.57;;;2.45;;
22812;SDS011;11573;51.334;3.244;2022-07-17T00:25:02;4.60;;;2.05;;
22812;SDS011;11573;51.334;3.244;2022-07-17T00:27:30;4.70;;;2.30;;
22812;SDS011;11573;51.334;3.244;2022-07-17T00:29:58;3.10;;;2.30;;
22812;SDS011;11573;51.334;3.244;2022-07-17T00:32:25;4.05;;;2.35;;
22812;SDS011;11573;51.334;3.244;2022-07-17T00:34:51;4.95;;;2.55;;
22812;SDS011;11573;51.334;3.244;2022-07-17T00:37:18;5.03;;;2.33;;
22812;SDS011;11573;51.334;3.244;2022-07-17T00:39:45;6.13;;;2.30;;
22812;SDS011;11573;51.334;3.244;2022-07-17T00:42:13;6.13;;;2.53;;
22812;SDS011;11573;51.334;3.244;2022-07-17T00:44:42;4.72;;;2.53;;
22812;SDS011;11573;51.334;3.244;2022-07-17T00:47:14;9.52;;;2.33;;
22812;SDS011;11573;51.334;3.244;2022-07-17T00:49:43;4.05;;;2.45;;
22812;SDS011;11573;51.334;3.244;2022-07-17T00:52:10;8.25;;;3.08;;
22812;SDS011;11573;51.334;3.244;2022-07-17T00:54:39;6.90;;;3.08;;
22812;SDS011;11573;51.334;3.244;2022-07-17T00:57:09;6.95;;;2.97;;
22812;SDS011;11573;51.334;3.244;2022-07-17T00:59:38;6.30;;;2.92;;
22812;SDS011;11573;51.334;3.244;2022-07-17T01:02:07;7.10;;;2.78;;
22812;SDS011;11573;51.334;3.244;2022-07-17T01:04:36;3.80;;;2.80;;
22812;SDS011;11573;51.334;3.244;2022-07-17T01:07:04;6.78;;;2.80;;
22812;SDS011;11573;51.334;3.244;2022-07-17T01:09:32;6.25;;;2.75;;
22812;SDS011;11573;51.334;3.244;2022-07-17T01:12:00;7.50;;;3.28;;
22812;SDS011;11573;51.334;3.244;2022-07-17T01:14:27;5.72;;;2.92;;
22812;SDS011;11573;51.334;3.244;2022-07-17T01:16:54;10.55;;;3.20;;
22812;SDS011;11573;51.334;3.244;2022-07-17T01:19:22;6.75;;;3.25;;
22812;SDS011;11573;51.334;3.244;2022-07-17T01:21:49;4.70;;;2.85;;
22812;SDS011;11573;51.334;3.244;2022-07-17T01:24:17;8.40;;;2.85;;
22812;SDS011;11573;51.334;3.244;2022-07-17T01:26:47;9.27;;;3.47;;
22812;SDS011;11573;51.334;3.244;2022-07-17T01:29:15;8.10;;;3.17;;
22812;SDS011;11573;51.334;3.244;2022-07-17T01:31:43;6.60;;;3.10;;
22812;SDS011;11573;51.334;3.244;2022-07-17T01:34:10;5.72;;;3.05;;
22812;SDS011;11573;51.334;3.244;2022-07-17T01:36:41;5.60;;;3.20;;
22812;SDS011;11573;51.334;3.244;2022-07-17T01:39:08;7.93;;;3.75;;
22812;SDS011;11573;51.334;3.244;2022-07-17T01:41:35;4.88;;;3.30;;
22812;SDS011;11573;51.334;3.244;2022-07-17T01:44:02;7.28;;;3.60;;
22812;SDS011;11573;51.334;3.244;2022-07-17T01:46:30;5.25;;;3.53;;
22812;SDS011;11573;51.334;3.244;2022-07-17T01:48:58;5.60;;;3.65;;
22812;SDS011;11573;51.334;3.244;2022-07-17T01:51:27;9.07;;;3.88;;
22812;SDS011;11573;51.334;3.244;2022-07-17T01:53:57;5.93;;;3.10;;
22812;SDS011;11573;51.334;3.244;2022-07-17T01:56:24;7.13;;;3.65;;
22812;SDS011;11573;51.334;3.244;2022-07-17T01:58:51;7.68;;;3.45;;
22812;SDS011;11573;51.334;3.244;2022-07-17T02:01:18;5.90;;;2.70;;
22812;SDS011;11573;51.334;3.244;2022-07-17T02:03:46;11.35;;;3.92;;
22812;SDS011;11573;51.334;3.244;2022-07-17T02:06:13;5.75;;;3.22;;
22812;SDS011;11573;51.334;3.244;2022-07-17T02:08:40;7.60;;;3.53;;
22812;SDS011;11573;51.334;3.244;2022-07-17T02:11:07;6.30;;;3.58;;
22812;SDS011;11573;51.334;3.244;2022-07-17T02:13:34;9.77;;;4.07;;
22812;SDS011;11573;51.334;3.244;2022-07-17T02:16:01;10.35;;;4.07;;
22812;SDS011;11573;51.334;3.244;2022-07-17T02:18:29;7.35;;;3.35;;
22812;SDS011;11573;51.334;3.244;2022-07-17T02:20:56;6.72;;;3.80;;
22812;SDS011;11573;51.334;3.244;2022-07-17T02:23:23;9.40;;;4.38;;
22812;SDS011;11573;51.334;3.244;2022-07-17T02:25:50;12.80;;;4.53;;
22812;SDS011;11573;51.334;3.244;2022-07-17T02:28:17;12.00;;;3.90;;
22812;SDS011;11573;51.334;3.244;2022-07-17T02:30:43;7.13;;;3.63;;
22812;SDS011;11573;51.334;3.244;2022-07-17T02:33:10;6.18;;;4.10;;
22812;SDS011;11573;51.334;3.244;2022-07-17T02:35:38;8.07;;;4.13;;
22812;SDS011;11573;51.334;3.244;2022-07-17T02:38:05;7.00;;;4.72;;
22812;SDS011;11573;51.334;3.244;2022-07-17T02:40:32;5.63;;;3.90;;
22812;SDS011;11573;51.334;3.244;2022-07-17T02:42:59;5.90;;;4.03;;
22812;SDS011;11573;51.334;3.244;2022-07-17T02:45:26;9.13;;;3.85;;
22812;SDS011;11573;51.334;3.244;2022-07-17T02:47:53;8.70;;;4.30;;
22812;SDS011;11573;51.334;3.244;2022-07-17T02:50:21;8.70;;;4.32;;
22812;SDS011;11573;51.334;3.244;2022-07-17T02:52:48;12.98;;;5.20;;
22812;SDS011;11573;51.334;3.244;2022-07-17T02:55:17;9.18;;;4.35;;
22812;SDS011;11573;51.334;3.244;2022-07-17T02:57:44;6.72;;;4.95;;
22812;SDS011;11573;51.334;3.244;2022-07-17T03:00:15;7.43;;;5.75;;
22812;SDS011;11573;51.334;3.244;2022-07-17T03:02:44;9.23;;;5.88;;
22812;SDS011;11573;51.334;3.244;2022-07-17T03:05:12;7.55;;;5.55;;
22812;SDS011;11573;51.334;3.244;2022-07-17T03:07:40;9.32;;;4.85;;
22812;SDS011;11573;51.334;3.244;2022-07-17T03:10:07;7.68;;;4.85;;
22812;SDS011;11573;51.334;3.244;2022-07-17T03:12:34;12.05;;;5.78;;
22812;SDS011;11573;51.334;3.244;2022-07-17T03:15:02;8.68;;;5.45;;
22812;SDS011;11573;51.334;3.244;2022-07-17T03:17:30;10.50;;;5.18;;
22812;SDS011;11573;51.334;3.244;2022-07-17T03:19:56;6.47;;;4.90;;
22812;SDS011;11573;51.334;3.244;2022-07-17T03:22:24;8.50;;;5.18;;
22812;SDS011;11573;51.334;3.244;2022-07-17T03:24:51;7.78;;;4.50;;
22812;SDS011;11573;51.334;3.244;2022-07-17T03:27:18;8.73;;;5.28;;
22812;SDS011;11573;51.334;3.244;2022-07-17T03:29:45;11.52;;;5.20;;
22812;SDS011;11573;51.334;3.244;2022-07-17T03:32:12;8.00;;;5.22;;
22812;SDS011;11573;51.334;3.244;2022-07-17T03:34:39;10.65;;;5.88;;
22812;SDS011;11573;51.334;3.244;2022-07-17T03:37:06;9.85;;;6.03;;
22812;SDS011;11573;51.334;3.244;2022-07-17T03:39:33;10.88;;;6.43;;
22812;SDS011;11573;51.334;3.244;2022-07-17T03:42:00;9.80;;;6.25;;
22812;SDS011;11573;51.334;3.244;2022-07-17T03:44:27;9.00;;;5.47;;
22812;SDS011;11573;51.334;3.244;2022-07-17T03:46:54;10.75;;;5.65;;
22812;SDS011;11573;51.334;3.244;2022-07-17T03:49:21;9.18;;;5.82;;
22812;SDS011;11573;51.334;3.244;2022-07-17T03:51:48;9.27;;;5.40;;
22812;SDS011;11573;51.334;3.244;2022-07-17T03:54:15;10.80;;;5.53;;
22812;SDS011;11573;51.334;3.244;2022-07-17T03:56:43;8.00;;;5.40;;
22812;SDS011;11573;51.334;3.244;2022-07-17T03:59:10;8.95;;;5.25;;
22812;SDS011;11573;51.334;3.244;2022-07-17T04:01:37;12.85;;;5.50;;
22812;SDS011;11573;51.334;3.244;2022-07-17T04:04:04;12.00;;;5.28;;
22812;SDS011;11573;51.334;3.244;2022-07-17T04:06:31;11.52;;;5.85;;
22812;SDS011;11573;51.334;3.244;2022-07-17T04:08:57;9.90;;;5.38;;
22812;SDS011;11573;51.334;3.244;2022-07-17T04:11:24;9.65;;;5.00;;
22812;SDS011;11573;51.334;3.244;2022-07-17T04:13:52;12.18;;;5.18;;
22812;SDS011;11573;51.334;3.244;2022-07-17T04:16:19;11.43;;;6.63;;
22812;SDS011;11573;51.334;3.244;2022-07-17T04:18:46;9.50;;;5.93;;
22812;SDS011;11573;51.334;3.244;2022-07-17T04:21:13;11.60;;;5.95;;
22812;SDS011;11573;51.334;3.244;2022-07-17T04:23:40;10.15;;;6.15;;
22812;SDS011;11573;51.334;3.244;2022-07-17T04:26:07;11.45;;;6.40;;
22812;SDS011;11573;51.334;3.244;2022-07-17T04:28:37;13.38;;;6.60;;
22812;SDS011;11573;51.334;3.244;2022-07-17T04:31:07;11.70;;;5.88;;
22812;SDS011;11573;51.334;3.244;2022-07-17T04:33:34;8.75;;;5.25;;
22812;SDS011;11573;51.334;3.244;2022-07-17T04:36:01;7.93;;;5.15;;
22812;SDS011;11573;51.334;3.244;2022-07-17T04:38:28;10.27;;;4.60;;
22812;SDS011;11573;51.334;3.244;2022-07-17T04:40:55;9.10;;;4.70;;
22812;SDS011;11573;51.334;3.244;2022-07-17T04:43:23;10.77;;;4.80;;
22812;SDS011;11573;51.334;3.244;2022-07-17T04:45:50;8.48;;;4.25;;
22812;SDS011;11573;51.334;3.244;2022-07-17T04:48:17;8.40;;;5.30;;
22812;SDS011;11573;51.334;3.244;2022-07-17T04:50:44;8.32;;;4.75;;
22812;SDS011;11573;51.334;3.244;2022-07-17T04:53:11;8.07;;;4.53;;
22812;SDS011;11573;51.334;3.244;2022-07-17T04:55:37;4.32;;;3.92;;
22812;SDS011;11573;51.334;3.244;2022-07-17T04:58:04;6.15;;;4.10;;
22812;SDS011;11573;51.334;3.244;2022-07-17T05:00:32;6.88;;;4.10;;
22812;SDS011;11573;51.334;3.244;2022-07-17T05:02:59;10.30;;;3.78;;
22812;SDS011;11573;51.334;3.244;2022-07-17T05:05:26;8.95;;;4.88;;
22812;SDS011;11573;51.334;3.244;2022-07-17T05:07:53;11.57;;;5.00;;
22812;SDS011;11573;51.334;3.244;2022-07-17T05:10:20;9.35;;;4.20;;
22812;SDS011;11573;51.334;3.244;2022-07-17T05:12:53;12.18;;;4.85;;
22812;SDS011;11573;51.334;3.244;2022-07-17T05:15:20;13.98;;;4.90;;
22812;SDS011;11573;51.334;3.244;2022-07-17T05:17:47;11.15;;;4.70;;
22812;SDS011;11573;51.334;3.244;2022-07-17T05:20:14;8.90;;;4.47;;
22812;SDS011;11573;51.334;3.244;2022-07-17T05:22:41;13.90;;;4.35;;
22812;SDS011;11573;51.334;3.244;2022-07-17T05:25:08;10.30;;;5.05;;
22812;SDS011;11573;51.334;3.244;2022-07-17T05:27:35;5.80;;;4.70;;
22812;SDS011;11573;51.334;3.244;2022-07-17T05:30:02;5.47;;;3.70;;
22812;SDS011;11573;51.334;3.244;2022-07-17T05:32:29;6.78;;;3.90;;
22812;SDS011;11573;51.334;3.244;2022-07-17T05:34:56;7.30;;;4.38;;
22812;SDS011;11573;51.334;3.244;2022-07-17T05:37:23;9.70;;;4.32;;
22812;SDS011;11573;51.334;3.244;2022-07-17T05:39:50;8.80;;;4.38;;
22812;SDS011;11573;51.334;3.244;2022-07-17T05:42:17;6.82;;;3.67;;
22812;SDS011;11573;51.334;3.244;2022-07-17T05:44:44;7.55;;;4.10;;
22812;SDS011;11573;51.334;3.244;2022-07-17T05:47:11;6.93;;;4.57;;
22812;SDS011;11573;51.334;3.244;2022-07-17T05:49:38;5.85;;;3.67;;
22812;SDS011;11573;51.334;3.244;2022-07-17T05:52:05;10.90;;;3.95;;
22812;SDS011;11573;51.334;3.244;2022-07-17T05:54:32;7.50;;;4.20;;
22812;SDS011;11573;51.334;3.244;2022-07-17T05:57:01;9.02;;;4.43;;
22812;SDS011;11573;51.334;3.244;2022-07-17T05:59:35;9.82;;;3.85;;
22812;SDS011;11573;51.334;3.244;2022-07-17T06:02:02;7.95;;;4.45;;
22812;SDS011;11573;51.334;3.244;2022-07-17T06:04:30;10.10;;;4.47;;
22812;SDS011;11573;51.334;3.244;2022-07-17T06:06:57;10.63;;;4.38;;
22812;SDS011;11573;51.334;3.244;2022-07-17T06:09:24;10.13;;;4.57;;
22812;SDS011;11573;51.334;3.244;2022-07-17T06:11:51;11.98;;;4.60;;
22812;SDS011;11573;51.334;3.244;2022-07-17T06:14:18;11.55;;;5.18;;
22812;SDS011;11573;51.334;3.244;2022-07-17T06:16:45;13.00;;;5.63;;
22812;SDS011;11573;51.334;3.244;2022-07-17T06:19:12;13.88;;;5.15;;
22812;SDS011;11573;51.334;3.244;2022-07-17T06:21:39;13.18;;;4.80;;
22812;SDS011;11573;51.334;3.244;2022-07-17T06:24:05;9.20;;;4.35;;
22812;SDS011;11573;51.334;3.244;2022-07-17T06:26:32;7.60;;;4.57;;
22812;SDS011;11573;51.334;3.244;2022-07-17T06:28:59;12.90;;;4.00;;
22812;SDS011;11573;51.334;3.244;2022-07-17T06:31:26;8.38;;;3.30;;
22812;SDS011;11573;51.334;3.244;2022-07-17T06:33:54;7.90;;;3.22;;
22812;SDS011;11573;51.334;3.244;2022-07-17T06:36:21;10.82;;;3.17;;
22812;SDS011;11573;51.334;3.244;2022-07-17T06:38:48;8.48;;;3.47;;
22812;SDS011;11573;51.334;3.244;2022-07-17T06:41:15;7.90;;;3.40;;
22812;SDS011;11573;51.334;3.244;2022-07-17T06:43:41;11.02;;;3.85;;
22812;SDS011;11573;51.334;3.244;2022-07-17T06:46:08;9.80;;;3.78;;
22812;SDS011;11573;51.334;3.244;2022-07-17T06:48:35;4.43;;;2.88;;
22812;SDS011;11573;51.334;3.244;2022-07-17T06:51:02;5.93;;;3.28;;
22812;SDS011;11573;51.334;3.244;2022-07-17T06:53:29;9.15;;;3.25;;
22812;SDS011;11573;51.334;3.244;2022-07-17T06:55:56;7.55;;;2.90;;
22812;SDS011;11573;51.334;3.244;2022-07-17T06:58:23;5.55;;;2.63;;
22812;SDS011;11573;51.334;3.244;2022-07-17T07:00:50;9.45;;;2.72;;
22812;SDS011;11573;51.334;3.244;2022-07-17T07:03:17;7.25;;;3.03;;
22812;SDS011;11573;51.334;3.244;2022-07-17T07:05:44;7.50;;;3.20;;
22812;SDS011;11573;51.334;3.244;2022-07-17T07:08:11;13.02;;;3.38;;
22812;SDS011;11573;51.334;3.244;2022-07-17T07:10:38;8.23;;;3.03;;
22812;SDS011;11573;51.334;3.244;2022-07-17T07:13:05;6.40;;;2.60;;
22812;SDS011;11573;51.334;3.244;2022-07-17T07:15:32;11.30;;;2.95;;
22812;SDS011;11573;51.334;3.244;2022-07-17T07:17:59;10.77;;;2.78;;
22812;SDS011;11573;51.334;3.244;2022-07-17T07:20:26;6.35;;;2.50;;
22812;SDS011;11573;51.334;3.244;2022-07-17T07:22:53;9.20;;;2.65;;
22812;SDS011;11573;51.334;3.244;2022-07-17T07:25:22;5.15;;;2.47;;
22812;SDS011;11573;51.334;3.244;2022-07-17T07:27:49;8.57;;;2.97;;
22812;SDS011;11573;51.334;3.244;2022-07-17T07:30:16;7.82;;;2.40;;
22812;SDS011;11573;51.334;3.244;2022-07-17T07:32:43;6.28;;;2.63;;
22812;SDS011;11573;51.334;3.244;2022-07-17T07:35:10;5.93;;;2.65;;
22812;SDS011;11573;51.334;3.244;2022-07-17T07:37:38;8.75;;;2.63;;
22812;SDS011;11573;51.334;3.244;2022-07-17T07:40:07;8.82;;;2.83;;
22812;SDS011;11573;51.334;3.244;2022-07-17T07:42:34;6.00;;;2.45;;
22812;SDS011;11573;51.334;3.244;2022-07-17T07:45:02;7.90;;;2.70;;
22812;SDS011;11573;51.334;3.244;2022-07-17T07:47:29;9.02;;;2.45;;
22812;SDS011;11573;51.334;3.244;2022-07-17T07:49:56;5.40;;;2.10;;
22812;SDS011;11573;51.334;3.244;2022-07-17T07:52:23;5.78;;;2.53;;
22812;SDS011;11573;51.334;3.244;2022-07-17T07:54:50;8.45;;;2.45;;
22812;SDS011;11573;51.334;3.244;2022-07-17T07:57:17;8.43;;;2.75;;
22812;SDS011;11573;51.334;3.244;2022-07-17T07:59:44;7.63;;;2.08;;
22812;SDS011;11573;51.334;3.244;2022-07-17T08:02:11;5.05;;;2.13;;
22812;SDS011;11573;51.334;3.244;2022-07-17T08:04:38;3.15;;;2.00;;
22812;SDS011;11573;51.334;3.244;2022-07-17T08:07:05;8.27;;;2.30;;
22812;SDS011;11573;51.334;3.244;2022-07-17T08:09:32;7.55;;;1.95;;
22812;SDS011;11573;51.334;3.244;2022-07-17T08:11:59;4.80;;;2.25;;
22812;SDS011;11573;51.334;3.244;2022-07-17T08:14:35;9.48;;;2.67;;
22812;SDS011;11573;51.334;3.244;2022-07-17T08:17:02;6.82;;;2.85;;
22812;SDS011;11573;51.334;3.244;2022-07-17T08:19:29;5.18;;;2.55;;
22812;SDS011;11573;51.334;3.244;2022-07-17T08:21:56;7.68;;;2.50;;
22812;SDS011;11573;51.334;3.244;2022-07-17T08:24:23;6.30;;;2.17;;
22812;SDS011;11573;51.334;3.244;2022-07-17T08:26:50;5.00;;;2.20;;
22812;SDS011;11573;51.334;3.244;2022-07-17T08:29:17;8.70;;;2.45;;
22812;SDS011;11573;51.334;3.244;2022-07-17T08:32:04;6.30;;;2.13;;
22812;SDS011;11573;51.334;3.244;2022-07-17T08:34:31;6.60;;;2.22;;
22812;SDS011;11573;51.334;3.244;2022-07-17T08:36:58;5.43;;;2.60;;
22812;SDS011;11573;51.334;3.244;2022-07-17T08:39:26;8.20;;;2.40;;
22812;SDS011;11573;51.334;3.244;2022-07-17T08:41:53;7.72;;;2.20;;
22812;SDS011;11573;51.334;3.244;2022-07-17T08:44:20;6.10;;;2.28;;
22812;SDS011;11573;51.334;3.244;2022-07-17T08:46:47;4.75;;;2.20;;
22812;SDS011;11573;51.334;3.244;2022-07-17T08:49:14;4.80;;;2.00;;
22812;SDS011;11573;51.334;3.244;2022-07-17T08:51:48;5.25;;;2.05;;
22812;SDS011;11573;51.334;3.244;2022-07-17T08:54:15;5.55;;;1.83;;
22812;SDS011;11573;51.334;3.244;2022-07-17T08:56:42;4.93;;;2.00;;
22812;SDS011;11573;51.334;3.244;2022-07-17T08:59:10;6.18;;;2.30;;
22812;SDS011;11573;51.334;3.244;2022-07-17T09:01:37;7.40;;;2.20;;
22812;SDS011;11573;51.334;3.244;2022-07-17T09:04:04;4.82;;;1.90;;
22812;SDS011;11573;51.334;3.244;2022-07-17T09:06:36;6.15;;;2.05;;
22812;SDS011;11573;51.334;3.244;2022-07-17T09:09:07;3.92;;;1.48;;
22812;SDS011;11573;51.334;3.244;2022-07-17T09:11:49;6.53;;;2.00;;
22812;SDS011;11573;51.334;3.244;2022-07-17T09:14:18;5.55;;;1.75;;
22812;SDS011;11573;51.334;3.244;2022-07-17T09:16:56;5.10;;;1.58;;
22812;SDS011;11573;51.334;3.244;2022-07-17T09:19:30;5.90;;;1.95;;
22812;SDS011;11573;51.334;3.244;2022-07-17T09:22:19;5.05;;;2.00;;
22812;SDS011;11573;51.334;3.244;2022-07-17T09:24:51;5.18;;;1.60;;
22812;SDS011;11573;51.334;3.244;2022-07-17T09:32:29;7.57;;;2.42;;
22812;SDS011;11573;51.334;3.244;2022-07-17T09:35:00;4.47;;;2.10;;
22812;SDS011;11573;51.334;3.244;2022-07-17T09:37:29;4.35;;;2.05;;
22812;SDS011;11573;51.334;3.244;2022-07-17T09:39:58;6.75;;;2.38;;
22812;SDS011;11573;51.334;3.244;2022-07-17T09:44:54;5.70;;;2.28;;
22812;SDS011;11573;51.334;3.244;2022-07-17T09:47:26;5.93;;;2.38;;
22812;SDS011;11573;51.334;3.244;2022-07-17T09:49:54;6.60;;;2.75;;
22812;SDS011;11573;51.334;3.244;2022-07-17T09:52:23;7.78;;;2.38;;
22812;SDS011;11573;51.334;3.244;2022-07-17T09:54:53;7.53;;;1.88;;
22812;SDS011;11573;51.334;3.244;2022-07-17T09:57:41;5.45;;;2.35;;
22812;SDS011;11573;51.334;3.244;2022-07-17T10:00:09;4.65;;;2.53;;
22812;SDS011;11573;51.334;3.244;2022-07-17T10:02:43;5.50;;;2.60;;
22812;SDS011;11573;51.334;3.244;2022-07-17T10:05:11;11.55;;;3.22;;
22812;SDS011;11573;51.334;3.244;2022-07-17T10:07:43;6.25;;;2.95;;
22812;SDS011;11573;51.334;3.244;2022-07-17T10:10:15;7.63;;;3.13;;
22812;SDS011;11573;51.334;3.244;2022-07-17T10:12:45;6.13;;;2.88;;
22812;SDS011;11573;51.334;3.244;2022-07-17T10:15:15;7.68;;;3.00;;
22812;SDS011;11573;51.334;3.244;2022-07-17T10:17:43;7.70;;;3.50;;
22812;SDS011;11573;51.334;3.244;2022-07-17T10:20:12;5.78;;;3.33;;
22812;SDS011;11573;51.334;3.244;2022-07-17T10:22:49;8.70;;;3.60;;
22812;SDS011;11573;51.334;3.244;2022-07-17T10:25:18;8.13;;;3.30;;
22812;SDS011;11573;51.334;3.244;2022-07-17T10:27:46;7.50;;;2.83;;
22812;SDS011;11573;51.334;3.244;2022-07-17T10:30:23;5.65;;;2.42;;
22812;SDS011;11573;51.334;3.244;2022-07-17T10:32:53;5.80;;;2.50;;
22812;SDS011;11573;51.334;3.244;2022-07-17T10:35:25;8.18;;;2.65;;
22812;SDS011;11573;51.334;3.244;2022-07-17T10:37:57;5.45;;;2.70;;
22812;SDS011;11573;51.334;3.244;2022-07-17T10:40:36;12.23;;;3.50;;
22812;SDS011;11573;51.334;3.244;2022-07-17T10:43:07;11.00;;;4.55;;
22812;SDS011;11573;51.334;3.244;2022-07-17T10:45:39;9.00;;;2.95;;
22812;SDS011;11573;51.334;3.244;2022-07-17T10:50:41;6.50;;;3.13;;
22812;SDS011;11573;51.334;3.244;2022-07-17T10:53:20;8.38;;;3.17;;
22812;SDS011;11573;51.334;3.244;2022-07-17T10:55:57;11.18;;;4.10;;
22812;SDS011;11573;51.334;3.244;2022-07-17T10:58:28;11.27;;;3.63;;
22812;SDS011;11573;51.334;3.244;2022-07-17T11:01:05;7.38;;;3.13;;
22812;SDS011;11573;51.334;3.244;2022-07-17T11:06:11;9.65;;;3.53;;
22812;SDS011;11573;51.334;3.244;2022-07-17T11:08:42;12.73;;;3.78;;
22812;SDS011;11573;51.334;3.244;2022-07-17T11:11:18;8.38;;;3.55;;
22812;SDS011;11573;51.334;3.244;2022-07-17T11:14:06;10.07;;;3.35;;
22812;SDS011;11573;51.334;3.244;2022-07-17T11:16:36;10.93;;;4.05;;
22812;SDS011;11573;51.334;3.244;2022-07-17T11:19:04;7.95;;;4.38;;
22812;SDS011;11573;51.334;3.244;2022-07-17T11:21:31;9.13;;;4.65;;
22812;SDS011;11573;51.334;3.244;2022-07-17T11:24:01;16.40;;;8.15;;
22812;SDS011;11573;51.334;3.244;2022-07-17T11:26:28;10.15;;;4.15;;
22812;SDS011;11573;51.334;3.244;2022-07-17T11:28:56;10.23;;;5.47;;
22812;SDS011;11573;51.334;3.244;2022-07-17T11:31:28;10.43;;;5.93;;
22812;SDS011;11573;51.334;3.244;2022-07-17T11:34:05;12.15;;;5.43;;
22812;SDS011;11573;51.334;3.244;2022-07-17T11:36:36;7.38;;;3.88;;
22812;SDS011;11573;51.334;3.244;2022-07-17T11:39:11;9.45;;;3.05;;
22812;SDS011;11573;51.334;3.244;2022-07-17T11:41:46;11.23;;;5.32;;
22812;SDS011;11573;51.334;3.244;2022-07-17T11:44:18;6.00;;;2.78;;
22812;SDS011;11573;51.334;3.244;2022-07-17T11:46:48;6.78;;;3.33;;
22812;SDS011;11573;51.334;3.244;2022-07-17T11:49:26;6.53;;;3.50;;
22812;SDS011;11573;51.334;3.244;2022-07-17T11:51:59;7.65;;;3.70;;
22812;SDS011;11573;51.334;3.244;2022-07-17T11:57:15;7.15;;;4.07;;
22812;SDS011;11573;51.334;3.244;2022-07-17T11:59:42;7.25;;;3.30;;
22812;SDS011;11573;51.334;3.244;2022-07-17T12:02:13;6.85;;;4.15;;
22812;SDS011;11573;51.334;3.244;2022-07-17T12:07:21;6.60;;;2.88;;
22812;SDS011;11573;51.334;3.244;2022-07-17T12:09:50;6.25;;;2.80;;
22812;SDS011;11573;51.334;3.244;2022-07-17T12:12:21;5.35;;;3.63;;
22812;SDS011;11573;51.334;3.244;2022-07-17T12:14:53;9.23;;;4.18;;
22812;SDS011;11573;51.334;3.244;2022-07-17T12:17:25;5.75;;;4.22;;
22812;SDS011;11573;51.334;3.244;2022-07-17T12:20:07;8.18;;;5.18;;
22812;SDS011;11573;51.334;3.244;2022-07-17T12:22:45;8.70;;;6.13;;
22812;SDS011;11573;51.334;3.244;2022-07-17T12:25:24;13.10;;;7.43;;
22812;SDS011;11573;51.334;3.244;2022-07-17T12:27:52;12.63;;;7.90;;
22812;SDS011;11573;51.334;3.244;2022-07-17T12:30:19;14.07;;;8.68;;
22812;SDS011;11573;51.334;3.244;2022-07-17T12:32:47;11.77;;;6.63;;
22812;SDS011;11573;51.334;3.244;2022-07-17T12:35:14;8.88;;;6.35;;
22812;SDS011;11573;51.334;3.244;2022-07-17T12:37:42;9.30;;;5.28;;
22812;SDS011;11573;51.334;3.244;2022-07-17T12:40:10;9.40;;;5.50;;
22812;SDS011;11573;51.334;3.244;2022-07-17T12:42:42;9.50;;;6.45;;
22812;SDS011;11573;51.334;3.244;2022-07-17T12:45:09;12.70;;;7.15;;
22812;SDS011;11573;51.334;3.244;2022-07-17T12:47:37;10.77;;;7.20;;
22812;SDS011;11573;51.334;3.244;2022-07-17T12:50:04;8.80;;;6.70;;
22812;SDS011;11573;51.334;3.244;2022-07-17T12:52:32;11.93;;;6.93;;
22812;SDS011;11573;51.334;3.244;2022-07-17T12:54:59;10.90;;;7.65;;
22812;SDS011;11573;51.334;3.244;2022-07-17T12:57:26;13.95;;;7.60;;
22812;SDS011;11573;51.334;3.244;2022-07-17T12:59:53;10.25;;;5.82;;
22812;SDS011;11573;51.334;3.244;2022-07-17T13:02:20;7.32;;;5.18;;
22812;SDS011;11573;51.334;3.244;2022-07-17T13:04:47;7.78;;;4.63;;
22812;SDS011;11573;51.334;3.244;2022-07-17T13:07:14;8.80;;;5.45;;
22812;SDS011;11573;51.334;3.244;2022-07-17T13:09:41;11.63;;;4.60;;
22812;SDS011;11573;51.334;3.244;2022-07-17T13:12:08;9.38;;;3.80;;
22812;SDS011;11573;51.334;3.244;2022-07-17T13:14:35;11.73;;;4.53;;
22812;SDS011;11573;51.334;3.244;2022-07-17T13:17:02;12.23;;;4.10;;
22812;SDS011;11573;51.334;3.244;2022-07-17T13:19:29;9.30;;;5.00;;
22812;SDS011;11573;51.334;3.244;2022-07-17T13:21:56;15.48;;;6.22;;
22812;SDS011;11573;51.334;3.244;2022-07-17T13:24:23;10.35;;;5.63;;
22812;SDS011;11573;51.334;3.244;2022-07-17T13:26:50;7.88;;;3.72;;
22812;SDS011;11573;51.334;3.244;2022-07-17T13:29:17;9.23;;;3.72;;
22812;SDS011;11573;51.334;3.244;2022-07-17T13:31:44;7.35;;;3.72;;
22812;SDS011;11573;51.334;3.244;2022-07-17T13:34:11;7.50;;;3.15;;
22812;SDS011;11573;51.334;3.244;2022-07-17T13:36:38;6.65;;;3.05;;
22812;SDS011;11573;51.334;3.244;2022-07-17T13:39:05;7.53;;;2.47;;
22812;SDS011;11573;51.334;3.244;2022-07-17T13:41:32;4.82;;;2.55;;
22812;SDS011;11573;51.334;3.244;2022-07-17T13:43:59;6.10;;;2.75;;
22812;SDS011;11573;51.334;3.244;2022-07-17T13:46:34;7.40;;;2.47;;
22812;SDS011;11573;51.334;3.244;2022-07-17T13:49:01;8.38;;;2.65;;
22812;SDS011;11573;51.334;3.244;2022-07-17T13:51:28;4.03;;;2.83;;
22812;SDS011;11573;51.334;3.244;2022-07-17T13:53:57;6.82;;;3.08;;
22812;SDS011;11573;51.334;3.244;2022-07-17T13:56:24;8.15;;;2.80;;
22812;SDS011;11573;51.334;3.244;2022-07-17T13:58:51;6.15;;;2.33;;
22812;SDS011;11573;51.334;3.244;2022-07-17T14:01:19;4.88;;;2.90;;
22812;SDS011;11573;51.334;3.244;2022-07-17T14:03:48;5.82;;;2.72;;
22812;SDS011;11573;51.334;3.244;2022-07-17T14:06:15;6.03;;;3.10;;
22812;SDS011;11573;51.334;3.244;2022-07-17T14:08:43;8.43;;;2.90;;
22812;SDS011;11573;51.334;3.244;2022-07-17T14:11:11;7.13;;;3.58;;
22812;SDS011;11573;51.334;3.244;2022-07-17T14:13:38;6.90;;;2.97;;
22812;SDS011;11573;51.334;3.244;2022-07-17T14:16:13;7.47;;;3.10;;
22812;SDS011;11573;51.334;3.244;2022-07-17T14:18:40;7.85;;;2.80;;
22812;SDS011;11573;51.334;3.244;2022-07-17T14:21:29;8.48;;;2.78;;
22812;SDS011;11573;51.334;3.244;2022-07-17T14:23:57;7.93;;;3.30;;
22812;SDS011;11573;51.334;3.244;2022-07-17T14:26:27;5.60;;;3.28;;
22812;SDS011;11573;51.334;3.244;2022-07-17T14:28:54;7.15;;;3.38;;
22812;SDS011;11573;51.334;3.244;2022-07-17T14:31:21;8.38;;;3.60;;
22812;SDS011;11573;51.334;3.244;2022-07-17T14:33:49;5.45;;;3.17;;
22812;SDS011;11573;51.334;3.244;2022-07-17T14:36:16;5.38;;;3.13;;
22812;SDS011;11573;51.334;3.244;2022-07-17T14:38:44;7.75;;;3.67;;
22812;SDS011;11573;51.334;3.244;2022-07-17T14:41:11;6.75;;;3.65;;
22812;SDS011;11573;51.334;3.244;2022-07-17T14:43:38;6.22;;;3.42;;
22812;SDS011;11573;51.334;3.244;2022-07-17T14:46:08;7.00;;;4.28;;
22812;SDS011;11573;51.334;3.244;2022-07-17T14:48:36;7.18;;;4.22;;
22812;SDS011;11573;51.334;3.244;2022-07-17T14:51:03;6.97;;;3.97;;
22812;SDS011;11573;51.334;3.244;2022-07-17T14:53:30;10.52;;;3.90;;
22812;SDS011;11573;51.334;3.244;2022-07-17T14:55:57;9.32;;;3.92;;
22812;SDS011;11573;51.334;3.244;2022-07-17T14:58:24;4.82;;;3.33;;
22812;SDS011;11573;51.334;3.244;2022-07-17T15:00:51;6.75;;;3.67;;
22812;SDS011;11573;51.334;3.244;2022-07-17T15:03:18;6.43;;;3.55;;
22812;SDS011;11573;51.334;3.244;2022-07-17T15:05:46;6.88;;;3.60;;
22812;SDS011;11573;51.334;3.244;2022-07-17T15:08:12;7.53;;;3.92;;
22812;SDS011;11573;51.334;3.244;2022-07-17T15:10:39;7.32;;;3.33;;